AirNav   Duncan Aviation - Near you to keep you 
flying
 
 867 users online  

F62 Hayfork Airport
Hayfork, California, USA

GOING TO HAYFORK?


FAA INFORMATION EFFECTIVE 15 JULY 2021

Location

FAA Identifier: F62
Lat/Long: 40-32-49.2000N 123-10-46.7000W
40-32.820000N 123-10.778333W
40.5470000,-123.1796389
(estimated)
Elevation: 2333.8 ft. / 711.3 m (surveyed)
Variation: 17E (1985)
From city: 1 mile S of HAYFORK, CA
Time zone: UTC -7 (UTC -8 during Standard Time)
Zip code: 96041

Airport Operations

Airport use: Open to the public
Activation date: 07/1970
Control tower: no
ARTCC: OAKLAND CENTER
FSS: RANCHO MURIETA FLIGHT SERVICE STATION
NOTAMs facility: RIU (NOTAM-D service available)
Attendance: UNATNDD
Wind indicator: lighted
Segmented circle: yes
Lights: ACTVT MIRL RWY 07/25 - CTAF. MIRL RWY 07/25 OTS INDEF
Beacon: white-green (lighted land airport)
DUSK TO DAWN. OTS INDEF

Airport Communications

CTAF/UNICOM: 122.8
WX AWOS-3 at O54 (17 nm NE): 120.850 (530-623-3810)

Airport Services

Parking: tiedowns
Airframe service: MINOR
Powerplant service: MINOR
Bottled oxygen: NONE
Bulk oxygen: NONE

Runway Information

Runway 7/25

Dimensions: 4100 x 60 ft. / 1250 x 18 m
Surface: asphalt, in fair condition
Weight bearing capacity: 
Single wheel: 12.5
Runway edge lights: medium intensity
RUNWAY 7  RUNWAY 25
Latitude: 40-32.806962N40-32.831865N
Longitude: 123-11.220862W123-10.336328W
Elevation: 2315.6 ft.2333.8 ft.
Traffic pattern: leftright
Runway heading: 070 magnetic, 087 true250 magnetic, 267 true
Markings: basic, in fair conditionbasic, in fair condition
Runway end identifier lights: nono
Touchdown point: yes, no lightsyes, no lights
Obstructions: 13 ft. tree, 330 ft. from runway, 65 ft. right of centerline, 10:1 slope to clear43 ft. tree, 850 ft. from runway, 15:1 slope to clear

Airport Ownership and Management from official FAA records

Ownership: Publicly-owned
Owner: COUNTY OF TRINITY
PO BOX 2490
WEAVERVILLE, CA 96093-0476
Phone 530-623-1365
Manager: RICK TIPPETT
PO BOX 2490
WEAVERVILLE, CA 96093-0476
Phone 530-623-1365
DIRECTOR OF TRANSPORTATION; OFFICE IN WEAVERVILLE.

Airport Operational Statistics

Aircraft based on the field: 3
Single engine airplanes: 3
    
Aircraft operations: avg 34/day *
96% transient general aviation
4% local general aviation
* for 12-month period ending 31 December 2019

Additional Remarks

HIGH TERRAIN ALL QUADRANTS.
NOISE ABATEMENT PROCEDURES IN EFFECT N, NE & S OF ARPT.
INTERMITTENTLY CLOSED WINTERS DUE TO SNOW. CTC COUNTY TRANSPORTATION OFFICE FOR INFO 530-623-1365.
FOR CD CTC OAKLAND ARTCC AT 510-745-3380.

Instrument Procedures

There are no published instrument procedures at F62.

Some nearby airports with instrument procedures:

KRDD - Redding Municipal Airport (40 nm E)
KFOT - Rohnerville Airport (43 nm W)
KEKA - Murray Field Airport (45 nm W)
KRBL - Red Bluff Municipal Airport (49 nm SE)
KACV - California Redwood Coast-Humboldt County Airport (49 nm NW)
 
Loc | Ops | Rwys | IFR | FBO | Links
Com | Nav | Svcs | Stats | Notes
Area around F62 (Hayfork Airport)
 
Road maps at: MapQuest Bing Google
 
Aerial photo
WARNING: Photo may not be current or correct
Aerial photo of F62 (Hayfork Airport)
Do you have a better or more recent aerial photo of Hayfork Airport that you would like to share? If so, please send us your photo.

 
Sectional chart

 
Airport distance calculator
Flying to Hayfork Airport? Find the distance to fly.

From to F62

Sunrise and sunset
Times for 31-Jul-2021
 Local
(UTC-7)
 Zulu
(UTC)
Morning civil twilight05:3912:39
Sunrise06:1013:10
Sunset20:2803:28
Evening civil twilight20:5903:59

Current date and time
Zulu (UTC)  31-Jul-2021 12:39:41
Local (UTC-7)  31-Jul-2021 05:39:41
 
METAR
KRDD 
40nm E 
311153Z AUTO 07003KT 9SM FU CLR 27/17 A2986 RMK AO2 SLP104 60000 T02720167 10339 20272 53005
KEKA 
47nm W 
301700Z 33005KT 7SM FEW/// 11/ A2994 RMK AO2 T0111 NOSPECI
KFOT 
49nm W 
311215Z AUTO 00000KT M1/4SM OVC002 10/10 A2997 RMK AO1
KRBL 
49nm SE 
311154Z AUTO 12004KT 10SM CLR 27/11 A2987 RMK AO2 SLP110 T02670111 10322 20267 51007
KACV 
49nm NW 
311216Z AUTO 19003KT 1/4SM R32/1200V1800FT FG VV002 11/11 A2997 RMK AO2 T01110111
TAF
KRDD 
40nm E 
311126Z 3112/0112 VRB04KT P6SM BKN150 FM311800 19007KT P6SM SCT250 FM312200 19012KT 4SM HZ BKN250 FM010600 VRB04KT P6SM BKN250
KRBL 
49nm SE 
311126Z 3112/0112 15004KT P6SM BKN150 FM311800 15009KT P6SM SCT250 FM312200 16015KT 5SM HZ BKN250 FM010600 17007KT P6SM BKN250
KACV 
49nm NW 
311132Z 3112/0112 VRB03KT 1/4SM FG OVC002 FM311700 VRB03KT 3SM BR BKN003 FM312000 27005KT P6SM SCT003 FM010200 18004KT 3SM BR BKN004 FM010700 VRB03KT 1/2SM FG OVC003 FM011100 VRB02KT 1/4SM FG OVC002
NOTAMs
Click for the latest NOTAMs
NOTAMs are issued by the DoD/FAA and will open in a separate window not controlled by AirNav.

 

 
 

Would you like to see your business listed on this page?

 If your business provides an interesting product or service to pilots, flight crews, aircraft, or users of the Hayfork Airport, you should consider listing it here.  To start the listing process, click on the button below
 
Add a business
 

Other Pages about Hayfork Airport

Update a link
 
Copyright © AirNav, LLC. All rights reserved. Privacy Policy  Contact